createdAt,value
2019-03-11T00:01:02.161Z,3.33
2019-03-11T00:03:26.634Z,2.60
2019-03-11T00:05:51.040Z,2.90
2019-03-11T00:08:15.475Z,2.53
2019-03-11T00:10:39.947Z,2.57
2019-03-11T00:13:04.519Z,2.30
2019-03-11T00:15:29.031Z,2.57
2019-03-11T00:17:53.540Z,2.40
2019-03-11T00:20:17.945Z,2.20
2019-03-11T00:22:42.378Z,2.00
2019-03-11T00:25:07.418Z,2.00
2019-03-11T00:27:31.850Z,2.13
2019-03-11T00:29:56.276Z,1.93
2019-03-11T00:32:20.777Z,2.07
2019-03-11T00:34:45.279Z,2.53
2019-03-11T00:37:09.722Z,2.37
2019-03-11T00:39:34.139Z,2.40
2019-03-11T00:41:58.587Z,2.63
2019-03-11T00:44:22.998Z,2.43
2019-03-11T00:46:47.413Z,2.70
2019-03-11T00:49:11.857Z,2.40
2019-03-11T00:51:36.259Z,2.80
2019-03-11T00:54:00.694Z,3.03
2019-03-11T00:56:25.170Z,3.00
2019-03-11T00:58:49.608Z,3.17
2019-03-11T01:01:14.090Z,3.77
2019-03-11T01:03:38.524Z,3.77
2019-03-11T01:06:02.938Z,4.20
2019-03-11T01:08:29.160Z,4.50
2019-03-11T01:10:53.537Z,4.03
2019-03-11T01:13:18.022Z,4.97
2019-03-11T01:15:42.569Z,5.40
2019-03-11T01:18:07.004Z,5.50
2019-03-11T01:20:31.408Z,5.83
2019-03-11T01:22:55.896Z,5.87
2019-03-11T01:25:20.388Z,5.10
2019-03-11T01:27:44.869Z,5.37
2019-03-11T01:30:12.268Z,5.43
2019-03-11T01:32:36.662Z,5.37
2019-03-11T01:35:01.090Z,5.73
2019-03-11T01:37:25.553Z,5.20
2019-03-11T01:39:50.012Z,5.47
2019-03-11T01:42:14.413Z,4.73
2019-03-11T01:44:38.833Z,4.87
2019-03-11T01:47:03.249Z,4.97
2019-03-11T01:49:27.667Z,4.67
2019-03-11T01:51:52.062Z,5.07
2019-03-11T01:54:16.485Z,5.23
2019-03-11T01:56:40.888Z,4.90
2019-03-11T01:59:05.309Z,4.93
2019-03-11T02:01:30.086Z,4.97
2019-03-11T02:03:54.575Z,5.23
2019-03-11T02:06:18.982Z,5.00
2019-03-11T02:08:43.376Z,4.67
2019-03-11T02:11:07.917Z,5.23
2019-03-11T02:13:32.351Z,4.90
2019-03-11T02:15:56.850Z,4.47
2019-03-11T02:18:21.249Z,4.40
2019-03-11T02:20:45.683Z,4.70
2019-03-11T02:23:10.089Z,4.20
2019-03-11T02:25:34.590Z,4.03
2019-03-11T02:27:58.988Z,3.93
2019-03-11T02:30:23.483Z,4.43
2019-03-11T02:32:47.905Z,3.53
2019-03-11T02:35:12.457Z,3.80
2019-03-11T02:37:36.942Z,3.53
2019-03-11T02:40:01.377Z,3.13
2019-03-11T02:42:25.840Z,3.23
2019-03-11T02:44:50.284Z,3.53
2019-03-11T02:47:14.743Z,3.00
2019-03-11T02:49:39.132Z,3.07
2019-03-11T02:52:03.563Z,2.97
2019-03-11T02:54:27.959Z,2.63
2019-03-11T02:56:52.369Z,2.93
2019-03-11T02:59:16.808Z,2.50
2019-03-11T03:01:45.905Z,2.57
2019-03-11T03:04:11.951Z,2.60
2019-03-11T03:06:36.441Z,2.77
2019-03-11T03:09:00.987Z,2.33
2019-03-11T03:11:25.425Z,2.63
2019-03-11T03:13:49.809Z,2.60
2019-03-11T03:16:14.228Z,3.17
2019-03-11T03:18:38.713Z,2.37
2019-03-11T03:21:03.154Z,2.20
2019-03-11T03:23:27.541Z,2.20
2019-03-11T03:25:51.982Z,2.40
2019-03-11T03:28:16.444Z,2.73
2019-03-11T03:30:40.994Z,2.60
2019-03-11T03:33:05.562Z,2.40
2019-03-11T03:35:30.027Z,3.30
2019-03-11T03:37:54.450Z,2.37
2019-03-11T03:40:18.995Z,2.40
2019-03-11T03:42:43.627Z,2.70
2019-03-11T03:45:34.950Z,2.67
2019-03-11T03:48:00.026Z,2.97
2019-03-11T03:50:26.659Z,2.53
2019-03-11T03:52:51.217Z,2.93
2019-03-11T03:55:15.766Z,3.63
2019-03-11T03:57:40.192Z,3.63
2019-03-11T04:00:09.498Z,3.60
2019-03-11T04:02:34.074Z,3.80
2019-03-11T04:04:58.478Z,4.13
2019-03-11T04:07:22.902Z,4.63
2019-03-11T04:09:47.368Z,4.37
2019-03-11T04:12:11.788Z,4.07
2019-03-11T04:17:34.248Z,4.13
2019-03-11T04:19:58.661Z,4.50
2019-03-11T04:22:23.342Z,4.23
2019-03-11T04:24:47.729Z,4.70
2019-03-11T04:27:12.335Z,5.00
2019-03-11T04:29:36.752Z,4.70
2019-03-11T04:32:01.250Z,4.83
2019-03-11T04:34:25.720Z,4.13
2019-03-11T04:36:50.217Z,4.13
2019-03-11T04:39:14.620Z,4.30
2019-03-11T04:41:39.087Z,4.63
2019-03-11T04:44:03.507Z,4.30
2019-03-11T04:46:27.907Z,5.50
2019-03-11T04:48:52.342Z,5.03
2019-03-11T04:51:16.744Z,5.20
2019-03-11T04:53:41.167Z,4.63
2019-03-11T04:56:05.570Z,4.97
2019-03-11T04:58:30.137Z,5.10
2019-03-11T05:00:54.540Z,4.93
2019-03-11T05:03:19.038Z,5.67
2019-03-11T05:05:43.511Z,5.30
2019-03-11T05:08:08.022Z,5.43
2019-03-11T05:10:32.397Z,5.50
2019-03-11T05:12:56.889Z,4.73
2019-03-11T05:15:21.356Z,5.17
2019-03-11T05:17:48.357Z,5.03
2019-03-11T05:20:13.490Z,4.80
2019-03-11T05:22:37.985Z,4.47
2019-03-11T05:25:02.528Z,4.97
2019-03-11T05:27:26.923Z,4.73
2019-03-11T05:29:51.488Z,4.03
2019-03-11T05:32:15.896Z,3.20
2019-03-11T05:34:40.314Z,3.50
2019-03-11T05:37:04.709Z,3.70
2019-03-11T05:39:29.126Z,3.90
2019-03-11T05:41:53.553Z,3.33
2019-03-11T05:44:17.962Z,3.40
2019-03-11T05:46:42.436Z,3.40
2019-03-11T05:49:06.858Z,3.10
2019-03-11T05:51:32.152Z,3.17
2019-03-11T05:53:57.517Z,3.53
2019-03-11T05:56:21.909Z,3.20
2019-03-11T05:58:46.310Z,2.53
2019-03-11T06:01:10.726Z,2.63
2019-03-11T06:03:35.133Z,2.20
2019-03-11T06:05:59.563Z,1.97
2019-03-11T06:08:24.496Z,2.70
2019-03-11T06:10:48.939Z,1.93
2019-03-11T06:13:13.338Z,2.30
2019-03-11T06:15:37.768Z,2.30
2019-03-11T06:18:02.177Z,1.93
2019-03-11T06:20:31.041Z,2.17
2019-03-11T06:22:55.899Z,2.50
2019-03-11T06:25:20.352Z,2.93
2019-03-11T06:27:45.516Z,2.27
2019-03-11T06:30:11.145Z,2.10
2019-03-11T06:32:35.559Z,2.23
2019-03-11T06:34:59.965Z,1.97
2019-03-11T06:37:24.390Z,1.93
2019-03-11T06:39:48.839Z,2.50
2019-03-11T06:42:13.258Z,2.60
2019-03-11T06:44:37.658Z,2.20
2019-03-11T06:47:02.089Z,2.53
2019-03-11T06:49:26.508Z,2.50
2019-03-11T06:51:50.955Z,2.30
2019-03-11T06:54:15.330Z,2.23
2019-03-11T06:56:39.736Z,2.33
2019-03-11T06:59:04.234Z,3.30
2019-03-11T07:01:28.653Z,2.20
2019-03-11T07:03:53.104Z,3.03
2019-03-11T07:06:17.543Z,2.23
2019-03-11T07:08:41.937Z,2.20
2019-03-11T07:11:06.420Z,2.57
2019-03-11T07:13:30.915Z,2.30
2019-03-11T07:15:55.322Z,2.00
2019-03-11T07:18:19.774Z,2.67
2019-03-11T07:20:44.173Z,2.20
2019-03-11T07:23:08.674Z,2.50
2019-03-11T07:25:33.086Z,2.10
2019-03-11T07:27:57.505Z,2.00
2019-03-11T07:30:22.062Z,1.83
2019-03-11T07:32:46.481Z,2.20
2019-03-11T07:35:11.020Z,2.50
2019-03-11T07:37:35.461Z,2.33
2019-03-11T07:39:59.866Z,2.53
2019-03-11T07:42:24.315Z,2.40
2019-03-11T07:44:48.761Z,2.23
2019-03-11T07:47:13.185Z,2.13
2019-03-11T07:49:37.603Z,2.60
2019-03-11T07:52:02.728Z,2.00
2019-03-11T07:54:35.521Z,2.40
2019-03-11T07:56:53.509Z,2.27
2019-03-11T07:59:17.940Z,2.53
2019-03-11T08:01:42.412Z,2.23
2019-03-11T08:04:06.962Z,2.37
2019-03-11T08:06:31.370Z,2.27
2019-03-11T08:08:55.806Z,2.30
2019-03-11T08:11:20.209Z,2.30
2019-03-11T08:13:44.645Z,2.97
2019-03-11T08:16:09.054Z,2.50
2019-03-11T08:18:35.345Z,2.83
2019-03-11T08:20:59.657Z,2.20
2019-03-11T08:23:24.086Z,2.30
2019-03-11T08:25:48.564Z,2.20
2019-03-11T08:28:12.998Z,2.40
2019-03-11T08:30:37.530Z,2.17
2019-03-11T08:33:02.035Z,1.90
2019-03-11T08:35:26.436Z,2.30
2019-03-11T08:37:50.903Z,2.50
2019-03-11T08:40:20.244Z,2.47
2019-03-11T08:42:44.718Z,2.63
2019-03-11T08:45:20.048Z,2.50
2019-03-11T08:47:44.523Z,2.80
2019-03-11T08:50:23.377Z,2.30
2019-03-11T08:52:47.777Z,2.60
2019-03-11T08:55:12.736Z,2.10
2019-03-11T08:57:39.935Z,2.30
2019-03-11T09:00:04.862Z,2.23
2019-03-11T09:02:29.269Z,2.57
2019-03-11T09:04:53.688Z,1.80
2019-03-11T09:07:18.069Z,2.57
2019-03-11T09:09:42.511Z,2.20
2019-03-11T09:12:06.899Z,2.23
2019-03-11T09:14:31.325Z,2.33
2019-03-11T09:16:55.814Z,2.10
2019-03-11T09:19:20.260Z,2.23
2019-03-11T09:21:44.741Z,2.07
2019-03-11T09:24:18.828Z,2.00
2019-03-11T09:26:35.342Z,2.47
2019-03-11T09:28:59.756Z,2.03
2019-03-11T09:31:24.169Z,1.83
2019-03-11T09:33:48.574Z,2.13
2019-03-11T09:36:13.007Z,1.83
2019-03-11T09:38:37.402Z,2.00
2019-03-11T09:41:01.842Z,2.20
2019-03-11T09:43:27.339Z,2.07
2019-03-11T09:45:51.813Z,1.90
2019-03-11T09:48:16.227Z,1.60
2019-03-11T09:50:40.650Z,1.90
2019-03-11T09:53:05.114Z,2.23
2019-03-11T09:55:29.878Z,1.53
2019-03-11T09:57:54.274Z,1.67
2019-03-11T10:00:26.849Z,1.80
2019-03-11T10:02:53.333Z,1.77
2019-03-11T10:05:17.783Z,1.60
2019-03-11T10:07:42.266Z,1.90
2019-03-11T10:10:12.191Z,1.60
2019-03-11T10:12:36.619Z,1.77
2019-03-11T10:15:01.042Z,1.40
2019-03-11T10:17:25.440Z,1.80
2019-03-11T10:19:49.880Z,1.70
2019-03-11T10:22:14.394Z,1.80
2019-03-11T10:24:38.813Z,1.67
2019-03-11T10:27:03.245Z,1.90
2019-03-11T10:29:27.661Z,1.87
2019-03-11T10:31:52.094Z,1.83
2019-03-11T10:34:16.519Z,1.67
2019-03-11T10:36:40.956Z,2.00
2019-03-11T10:39:07.004Z,1.80
2019-03-11T10:41:31.440Z,1.90
2019-03-11T10:43:55.844Z,1.80
2019-03-11T10:46:20.281Z,1.80
2019-03-11T10:48:44.687Z,1.80
2019-03-11T10:51:09.237Z,1.67
2019-03-11T10:53:33.675Z,1.60
2019-03-11T10:55:59.938Z,1.80
2019-03-11T10:58:24.278Z,1.67
2019-03-11T11:00:48.765Z,1.63
2019-03-11T11:03:13.261Z,1.70
2019-03-11T11:05:37.671Z,1.50
2019-03-11T11:08:02.097Z,1.50
2019-03-11T11:10:26.684Z,1.87
2019-03-11T11:12:51.452Z,1.60
2019-03-11T11:15:24.629Z,1.43
2019-03-11T11:17:49.197Z,1.60
2019-03-11T11:20:21.018Z,1.90
2019-03-11T11:22:45.513Z,1.73
2019-03-11T11:25:12.878Z,1.60
2019-03-11T11:27:37.382Z,2.10
2019-03-11T11:30:01.862Z,1.60
2019-03-11T11:32:26.369Z,1.63
2019-03-11T11:34:51.213Z,1.80
2019-03-11T11:37:15.722Z,1.87
2019-03-11T11:39:40.128Z,1.87
2019-03-11T11:42:04.686Z,1.77
2019-03-11T11:44:29.156Z,1.40
2019-03-11T11:46:53.677Z,1.40
2019-03-11T11:49:18.159Z,1.83
2019-03-11T11:51:42.644Z,1.70
2019-03-11T11:54:07.074Z,1.50
2019-03-11T11:56:31.475Z,1.73
2019-03-11T11:58:55.889Z,1.70
2019-03-11T12:01:20.387Z,1.73
2019-03-11T12:03:44.879Z,1.57
2019-03-11T12:06:09.440Z,1.37
2019-03-11T12:08:33.860Z,1.70
2019-03-11T12:10:58.264Z,1.63
2019-03-11T12:13:22.830Z,1.60
2019-03-11T12:15:47.296Z,1.83
2019-03-11T12:18:11.803Z,1.70
2019-03-11T12:20:36.274Z,1.70
2019-03-11T12:23:00.763Z,1.77
2019-03-11T12:25:25.347Z,1.87
2019-03-11T12:27:54.067Z,2.00
2019-03-11T12:30:28.384Z,1.73
2019-03-11T12:32:52.985Z,2.00
2019-03-11T12:35:17.640Z,2.13
2019-03-11T12:37:42.303Z,2.43
2019-03-11T12:40:09.954Z,1.80
2019-03-11T12:42:34.369Z,2.47
2019-03-11T12:44:58.810Z,2.30
2019-03-11T12:47:23.217Z,1.90
2019-03-11T12:49:47.714Z,2.07
2019-03-11T12:52:12.141Z,2.03
2019-03-11T12:54:42.531Z,1.80
2019-03-11T12:57:07.007Z,2.10
2019-03-11T12:59:31.453Z,2.30
2019-03-11T13:01:55.931Z,1.97
2019-03-11T13:04:20.378Z,2.50
2019-03-11T13:06:44.934Z,1.97
2019-03-11T13:09:09.381Z,2.10
2019-03-11T13:11:33.794Z,2.30
2019-03-11T13:13:58.212Z,2.10
2019-03-11T13:16:22.616Z,1.83
2019-03-11T13:18:47.032Z,1.77
2019-03-11T13:21:17.698Z,2.10
2019-03-11T13:23:42.181Z,1.60
2019-03-11T13:26:06.759Z,2.00
2019-03-11T13:28:31.172Z,1.80
2019-03-11T13:30:55.618Z,2.10
2019-03-11T13:33:20.063Z,2.10
2019-03-11T13:35:44.660Z,1.80
2019-03-11T13:38:09.070Z,1.87
2019-03-11T13:40:33.498Z,2.07
2019-03-11T13:42:57.900Z,1.90
2019-03-11T13:45:22.470Z,2.00
2019-03-11T13:47:47.102Z,1.40
2019-03-11T13:50:14.022Z,1.80
2019-03-11T13:52:38.521Z,2.10
2019-03-11T13:55:10.175Z,1.90
2019-03-11T13:57:29.500Z,1.90
2019-03-11T13:59:53.922Z,2.17
2019-03-11T14:02:18.423Z,2.00
2019-03-11T14:04:42.832Z,2.23
2019-03-11T14:07:07.331Z,2.40
2019-03-11T14:09:31.808Z,1.70
2019-03-11T14:11:56.622Z,1.50
2019-03-11T14:14:21.026Z,1.67
2019-03-11T14:16:45.464Z,1.20
2019-03-11T14:19:10.097Z,1.10
2019-03-11T14:21:34.529Z,1.23
2019-03-11T14:23:58.942Z,1.63
2019-03-11T14:26:23.445Z,1.30
2019-03-11T14:28:47.917Z,1.13
2019-03-11T14:31:12.436Z,1.00
2019-03-11T14:33:36.842Z,1.10
2019-03-11T14:36:01.276Z,0.90
2019-03-11T14:38:25.693Z,0.90
2019-03-11T14:40:50.168Z,1.00
2019-03-11T14:43:14.597Z,0.83
2019-03-11T14:45:39.083Z,0.90
2019-03-11T14:48:03.754Z,0.80
2019-03-11T14:50:28.229Z,0.90
2019-03-11T14:52:52.679Z,0.70
2019-03-11T14:55:17.320Z,0.60
2019-03-11T14:57:41.736Z,0.77
2019-03-11T15:00:09.356Z,0.80
2019-03-11T15:02:33.932Z,0.80
2019-03-11T15:04:58.291Z,0.70
2019-03-11T15:07:22.688Z,0.70
2019-03-11T15:09:51.304Z,0.67
2019-03-11T15:12:13.214Z,0.70
2019-03-11T15:14:37.711Z,0.80
2019-03-11T15:17:02.215Z,0.80
2019-03-11T15:19:26.620Z,0.80
2019-03-11T15:21:51.102Z,1.00
2019-03-11T15:24:15.605Z,0.80
2019-03-11T15:26:40.113Z,0.93
2019-03-11T15:29:04.648Z,0.90
2019-03-11T15:31:29.215Z,1.00
2019-03-11T15:33:53.682Z,1.00
2019-03-11T15:36:18.166Z,1.20
2019-03-11T15:38:42.660Z,1.20
2019-03-11T15:41:07.064Z,1.30
2019-03-11T15:43:31.508Z,1.17
2019-03-11T15:45:55.915Z,1.13
2019-03-11T15:48:20.343Z,1.23
2019-03-11T15:50:44.812Z,1.57
2019-03-11T15:53:09.319Z,1.50
2019-03-11T15:55:33.800Z,1.53
2019-03-11T15:57:58.344Z,1.37
2019-03-11T16:00:23.742Z,1.70
2019-03-11T16:02:48.525Z,1.80
2019-03-11T16:05:13.468Z,1.70
2019-03-11T16:07:39.524Z,1.77
2019-03-11T16:10:16.005Z,1.87
2019-03-11T16:12:31.355Z,1.80
2019-03-11T16:14:55.767Z,1.90
2019-03-11T16:17:20.330Z,1.97
2019-03-11T16:19:44.793Z,2.10
2019-03-11T16:22:09.312Z,2.30
2019-03-11T16:24:33.734Z,2.30
2019-03-11T16:26:58.216Z,2.27
2019-03-11T16:29:22.648Z,2.30
2019-03-11T16:31:47.131Z,2.53
2019-03-11T16:34:11.590Z,2.73
2019-03-11T16:36:36.070Z,2.70
2019-03-11T16:39:00.514Z,3.40
2019-03-11T16:41:24.918Z,4.10
2019-03-11T16:43:49.443Z,3.80
2019-03-11T16:46:13.852Z,3.83
2019-03-11T16:48:38.482Z,3.70
2019-03-11T16:51:03.022Z,3.83
2019-03-11T16:53:27.544Z,4.00
2019-03-11T16:55:54.835Z,4.73
2019-03-11T16:58:19.262Z,3.83
2019-03-11T17:00:45.688Z,4.63
2019-03-11T17:03:10.260Z,4.03
2019-03-11T17:05:34.730Z,4.40
2019-03-11T17:07:59.118Z,4.70
2019-03-11T17:10:25.013Z,4.50
2019-03-11T17:12:49.563Z,4.53
2019-03-11T17:15:14.336Z,4.60
2019-03-11T17:17:38.879Z,4.43
2019-03-11T17:20:04.336Z,4.10
2019-03-11T17:22:28.829Z,4.63
2019-03-11T17:24:53.313Z,4.07
2019-03-11T17:27:17.705Z,4.70
2019-03-11T17:29:42.144Z,4.73
2019-03-11T17:32:06.689Z,4.70
2019-03-11T17:34:31.120Z,4.90
2019-03-11T17:36:55.517Z,3.90
2019-03-11T17:39:20.090Z,3.53
2019-03-11T17:41:44.497Z,3.50
2019-03-11T17:44:09.076Z,3.53
2019-03-11T17:46:33.626Z,3.40
2019-03-11T17:48:58.156Z,3.60
2019-03-11T17:51:22.721Z,3.50
2019-03-11T17:53:47.738Z,3.53
2019-03-11T17:56:12.312Z,3.70
2019-03-11T17:58:36.811Z,3.60
2019-03-11T18:01:01.334Z,3.80
2019-03-11T18:03:25.887Z,3.50
2019-03-11T18:05:50.457Z,3.97
2019-03-11T18:08:14.969Z,3.60
2019-03-11T18:10:39.487Z,3.63
2019-03-11T18:13:03.960Z,3.60
2019-03-11T18:15:28.663Z,3.53
2019-03-11T18:17:53.140Z,3.63
2019-03-11T18:20:18.940Z,3.50
2019-03-11T18:22:43.413Z,3.60
2019-03-11T18:25:10.304Z,3.63
2019-03-11T18:27:34.736Z,3.67
2019-03-11T18:30:00.063Z,4.17
2019-03-11T18:32:24.769Z,3.83
2019-03-11T18:34:49.191Z,3.80
2019-03-11T18:37:13.758Z,4.47
2019-03-11T18:39:38.228Z,4.20
2019-03-11T18:42:02.644Z,4.03
2019-03-11T18:44:27.069Z,4.07
2019-03-11T18:46:51.525Z,4.27
2019-03-11T18:49:15.864Z,4.30
2019-03-11T18:51:40.306Z,4.60
2019-03-11T18:54:04.948Z,4.30
2019-03-11T18:56:29.423Z,4.10
2019-03-11T18:58:53.843Z,4.93
2019-03-11T19:01:18.261Z,4.60
2019-03-11T19:03:42.681Z,4.70
2019-03-11T19:06:07.318Z,4.40
2019-03-11T19:08:31.712Z,4.60
2019-03-11T19:10:56.176Z,4.53
2019-03-11T19:13:20.573Z,4.47
2019-03-11T19:15:45.208Z,4.80
2019-03-11T19:18:09.646Z,4.90
2019-03-11T19:20:34.133Z,4.93
2019-03-11T19:22:58.522Z,5.07
2019-03-11T19:25:23.037Z,5.80
2019-03-11T19:27:47.548Z,5.47
2019-03-11T19:30:17.416Z,5.23
2019-03-11T19:32:41.800Z,6.07
2019-03-11T19:35:08.040Z,5.67
2019-03-11T19:37:32.491Z,6.90
2019-03-11T19:39:56.875Z,6.10
2019-03-11T19:42:21.372Z,6.60
2019-03-11T19:44:47.444Z,6.97
2019-03-11T19:47:12.249Z,6.97
2019-03-11T19:49:36.677Z,6.80
2019-03-11T19:52:01.172Z,7.10
2019-03-11T19:54:25.701Z,7.03
2019-03-11T19:56:50.156Z,7.20
2019-03-11T19:59:14.650Z,7.20
2019-03-11T20:01:39.082Z,7.40
2019-03-11T20:04:03.631Z,7.67
2019-03-11T20:06:28.130Z,7.73
2019-03-11T20:08:52.657Z,7.70
2019-03-11T20:11:17.094Z,7.97
2019-03-11T20:13:41.597Z,7.53
2019-03-11T20:16:06.191Z,7.97
2019-03-11T20:18:30.790Z,8.33
2019-03-11T20:20:55.334Z,8.37
2019-03-11T20:23:19.808Z,8.23
2019-03-11T20:25:44.401Z,7.83
2019-03-11T20:28:08.993Z,7.70
2019-03-11T20:30:33.517Z,7.90
2019-03-11T20:32:57.969Z,8.87
2019-03-11T20:35:22.465Z,7.33
2019-03-11T20:37:47.106Z,7.90
2019-03-11T20:40:12.701Z,7.87
2019-03-11T20:42:37.226Z,7.93
2019-03-11T20:45:01.820Z,8.10
2019-03-11T20:47:26.261Z,8.67
2019-03-11T20:49:50.694Z,7.73
2019-03-11T20:52:15.225Z,8.27
2019-03-11T20:54:39.709Z,7.80
2019-03-11T20:57:04.164Z,8.10
2019-03-11T20:59:28.584Z,8.00
2019-03-11T21:01:53.147Z,7.37
2019-03-11T21:04:17.644Z,7.80
2019-03-11T21:06:42.022Z,7.70
2019-03-11T21:09:08.520Z,8.03
2019-03-11T21:11:32.934Z,7.63
2019-03-11T21:13:57.398Z,7.73
2019-03-11T21:16:21.874Z,8.20
2019-03-11T21:18:46.322Z,8.43
2019-03-11T21:21:10.797Z,7.97
2019-03-11T21:23:35.194Z,7.17
2019-03-11T21:25:59.742Z,7.63
2019-03-11T21:28:24.410Z,9.13
2019-03-11T21:30:48.886Z,9.93
2019-03-11T21:33:13.298Z,8.63
2019-03-11T21:35:37.755Z,8.10
2019-03-11T21:38:02.338Z,7.63
2019-03-11T21:40:27.126Z,9.37
2019-03-11T21:42:51.967Z,8.57
2019-03-11T21:45:17.489Z,8.87
2019-03-11T21:47:42.128Z,8.10
2019-03-11T21:50:12.146Z,9.23
2019-03-11T21:52:36.665Z,8.33
2019-03-11T21:55:01.168Z,8.00
2019-03-11T21:57:25.783Z,7.87
2019-03-11T21:59:50.178Z,7.80
2019-03-11T22:02:14.636Z,7.87
2019-03-11T22:04:39.076Z,8.10
2019-03-11T22:07:03.544Z,8.37
2019-03-11T22:09:27.978Z,8.70
2019-03-11T22:11:52.397Z,8.63
2019-03-11T22:14:16.833Z,8.87
2019-03-11T22:16:41.234Z,7.77
2019-03-11T22:19:05.730Z,7.67
2019-03-11T22:21:30.152Z,8.93
2019-03-11T22:23:54.562Z,8.03
2019-03-11T22:26:18.993Z,7.40
2019-03-11T22:28:43.393Z,7.43
2019-03-11T22:31:07.837Z,7.00
2019-03-11T22:33:34.745Z,8.03
2019-03-11T22:35:58.373Z,8.07
2019-03-11T22:38:22.776Z,8.10
2019-03-11T22:40:47.198Z,8.13
2019-03-11T22:43:11.714Z,8.33
2019-03-11T22:45:36.153Z,8.20
2019-03-11T22:48:00.551Z,8.00
2019-03-11T22:50:24.993Z,8.67
2019-03-11T22:52:49.870Z,8.03
2019-03-11T22:55:14.512Z,8.43
2019-03-11T22:57:39.081Z,8.23
2019-03-11T23:00:05.170Z,8.97
2019-03-11T23:02:29.658Z,8.63
2019-03-11T23:04:54.070Z,8.40
2019-03-11T23:07:18.675Z,8.67
2019-03-11T23:09:43.106Z,7.73
2019-03-11T23:12:07.709Z,7.73
2019-03-11T23:14:32.185Z,8.30
2019-03-11T23:16:56.801Z,7.57
2019-03-11T23:19:21.240Z,7.80
2019-03-11T23:21:45.646Z,7.03
2019-03-11T23:24:10.159Z,7.40
2019-03-11T23:26:34.564Z,7.30
2019-03-11T23:28:58.999Z,6.77
2019-03-11T23:31:23.387Z,7.00
2019-03-11T23:33:47.895Z,7.40
2019-03-11T23:36:12.382Z,7.00
2019-03-11T23:38:36.814Z,6.87
2019-03-11T23:41:01.255Z,6.97
2019-03-11T23:43:25.663Z,6.53
2019-03-11T23:45:50.081Z,6.17
2019-03-11T23:48:14.575Z,6.23
2019-03-11T23:50:39.017Z,5.93
2019-03-11T23:53:03.424Z,5.60
2019-03-11T23:55:27.865Z,5.83
2019-03-11T23:57:52.269Z,6.30
